createdAt,value
2022-11-10T00:00:51.056Z,11.38
2022-11-10T00:01:51.059Z,11.36
2022-11-10T00:02:51.017Z,11.35
2022-11-10T00:03:51.059Z,11.38
2022-11-10T00:04:50.997Z,11.36
2022-11-10T00:05:50.994Z,11.36
2022-11-10T00:06:50.992Z,11.38
2022-11-10T00:07:50.961Z,11.36
2022-11-10T00:08:50.956Z,11.36
2022-11-10T00:09:50.943Z,11.36
2022-11-10T00:10:50.949Z,11.36
2022-11-10T00:11:50.959Z,11.35
2022-11-10T00:12:50.962Z,11.35
2022-11-10T00:13:50.890Z,11.32
2022-11-10T00:14:51.922Z,11.32
2022-11-10T00:15:50.852Z,11.32
2022-11-10T00:16:50.892Z,11.31
2022-11-10T00:17:50.899Z,11.29
2022-11-10T00:18:50.973Z,11.29
2022-11-10T00:19:50.911Z,11.28
2022-11-10T00:20:50.789Z,11.27
2022-11-10T00:21:50.781Z,11.25
2022-11-10T00:22:50.829Z,11.25
2022-11-10T00:23:50.884Z,11.24
2022-11-10T00:24:50.736Z,11.24
2022-11-10T00:25:50.740Z,11.24
2022-11-10T00:26:50.751Z,11.21
2022-11-10T00:27:50.723Z,11.24
2022-11-10T00:28:50.791Z,11.24
2022-11-10T00:29:50.672Z,11.21
2022-11-10T00:30:50.680Z,11.21
2022-11-10T00:31:50.690Z,11.19
2022-11-10T00:32:50.693Z,11.16
2022-11-10T00:33:50.643Z,11.16
2022-11-10T00:34:50.617Z,11.13
2022-11-10T00:35:50.597Z,11.11
2022-11-10T00:36:50.584Z,11.11
2022-11-10T00:37:50.575Z,11.10
2022-11-10T00:38:50.573Z,11.10
2022-11-10T00:39:50.562Z,11.11
2022-11-10T00:40:50.533Z,11.10
2022-11-10T00:41:50.528Z,11.10
2022-11-10T00:42:50.505Z,11.09
2022-11-10T00:43:50.505Z,11.09
2022-11-10T00:44:50.485Z,11.09
2022-11-10T00:45:50.467Z,11.07
2022-11-10T00:46:50.446Z,11.03
2022-11-10T00:47:50.456Z,11.02
2022-11-10T00:48:50.458Z,11.03
2022-11-10T00:49:50.426Z,11.02
2022-11-10T00:50:50.403Z,11.02
2022-11-10T00:51:50.394Z,11.02
2022-11-10T00:52:50.385Z,11.02
2022-11-10T00:53:50.425Z,11.02
2022-11-10T00:54:50.345Z,11.02
2022-11-10T00:55:50.337Z,11.01
2022-11-10T00:56:50.326Z,11.01
2022-11-10T00:57:50.328Z,11.01
2022-11-10T00:58:50.320Z,11.02
2022-11-10T00:59:50.303Z,11.01
2022-11-10T01:00:50.317Z,11.01
2022-11-10T01:01:50.267Z,10.99
2022-11-10T01:02:50.279Z,11.01
2022-11-10T01:03:50.247Z,11.01
2022-11-10T01:04:50.228Z,10.99
2022-11-10T01:05:50.212Z,11.01
2022-11-10T01:06:50.256Z,10.99
2022-11-10T01:07:50.187Z,10.99
2022-11-10T01:08:50.178Z,10.99
2022-11-10T01:09:50.251Z,10.98
2022-11-10T01:10:50.148Z,10.95
2022-11-10T01:11:50.138Z,10.95
2022-11-10T01:12:50.122Z,10.95
2022-11-10T01:13:50.120Z,10.94
2022-11-10T01:14:50.108Z,10.94
2022-11-10T01:15:50.090Z,10.91
2022-11-10T01:16:50.082Z,10.91
2022-11-10T01:17:50.059Z,10.89
2022-11-10T01:18:50.062Z,10.88
2022-11-10T01:19:50.061Z,10.89
2022-11-10T01:20:50.015Z,10.88
2022-11-10T01:21:50.000Z,10.84
2022-11-10T01:22:49.990Z,10.84
2022-11-10T01:23:50.982Z,10.86
2022-11-10T01:24:49.971Z,10.83
2022-11-10T01:25:49.951Z,10.83
2022-11-10T01:26:49.959Z,10.81
2022-11-10T01:27:49.927Z,10.81
2022-11-10T01:28:49.912Z,10.80
2022-11-10T01:29:49.924Z,10.76
2022-11-10T01:30:49.882Z,10.76
2022-11-10T01:31:49.877Z,10.73
2022-11-10T01:32:49.872Z,10.71
2022-11-10T01:33:49.853Z,10.71
2022-11-10T01:34:49.850Z,10.68
2022-11-10T01:35:49.844Z,10.66
2022-11-10T01:36:49.803Z,10.65
2022-11-10T01:37:49.806Z,10.63
2022-11-10T01:38:49.794Z,10.63
2022-11-10T01:39:49.793Z,10.62
2022-11-10T01:40:49.774Z,10.60
2022-11-10T01:41:49.747Z,10.58
2022-11-10T01:42:49.729Z,10.56
2022-11-10T01:43:49.735Z,10.55
2022-11-10T01:44:49.713Z,10.55
2022-11-10T01:45:49.702Z,10.53
2022-11-10T01:46:49.704Z,10.52
2022-11-10T01:47:49.676Z,10.47
2022-11-10T01:48:49.663Z,10.51
2022-11-10T01:49:49.655Z,10.47
2022-11-10T01:50:49.633Z,10.46
2022-11-10T01:51:49.635Z,10.43
2022-11-10T01:52:49.606Z,10.44
2022-11-10T01:53:49.599Z,10.44
2022-11-10T01:54:49.587Z,10.44
2022-11-10T01:55:49.583Z,10.44
2022-11-10T01:56:49.552Z,10.43
2022-11-10T01:57:49.547Z,10.42
2022-11-10T01:58:49.526Z,10.42
2022-11-10T01:59:49.535Z,10.42
2022-11-10T02:00:49.512Z,10.43
2022-11-10T02:01:49.496Z,10.43
2022-11-10T02:02:49.478Z,10.43
2022-11-10T02:03:49.465Z,10.43
2022-11-10T02:04:49.457Z,10.43
2022-11-10T02:05:49.460Z,10.43
2022-11-10T02:06:49.439Z,10.40
2022-11-10T02:07:49.417Z,10.39
2022-11-10T02:08:49.396Z,10.37
2022-11-10T02:09:49.416Z,10.40
2022-11-10T02:10:49.383Z,10.40
2022-11-10T02:11:49.367Z,10.42
2022-11-10T02:12:49.381Z,10.43
2022-11-10T02:13:49.337Z,10.43
2022-11-10T02:14:49.319Z,10.43
2022-11-10T02:15:49.344Z,10.44
2022-11-10T02:16:49.297Z,10.43
2022-11-10T02:17:49.279Z,10.40
2022-11-10T02:18:49.271Z,10.40
2022-11-10T02:19:49.280Z,10.40
2022-11-10T02:20:49.250Z,10.40
2022-11-10T02:21:49.246Z,10.42
2022-11-10T02:22:49.229Z,10.42
2022-11-10T02:23:49.207Z,10.43
2022-11-10T02:24:49.192Z,10.43
2022-11-10T02:25:49.209Z,10.44
2022-11-10T02:26:49.165Z,10.46
2022-11-10T02:27:49.199Z,10.44
2022-11-10T02:28:49.139Z,10.44
2022-11-10T02:29:49.129Z,10.43
2022-11-10T02:30:49.128Z,10.44
2022-11-10T02:31:49.122Z,10.46
2022-11-10T02:32:49.090Z,10.46
2022-11-10T02:33:49.070Z,10.44
2022-11-10T02:34:49.068Z,10.43
2022-11-10T02:35:49.060Z,10.43
2022-11-10T02:36:49.048Z,10.42
2022-11-10T02:37:49.032Z,10.40
2022-11-10T02:38:49.011Z,10.40
2022-11-10T02:39:48.991Z,10.42
2022-11-10T02:40:49.000Z,10.40
2022-11-10T02:41:48.990Z,10.39
2022-11-10T02:42:48.983Z,10.37
2022-11-10T02:43:48.941Z,10.36
2022-11-10T02:44:48.940Z,10.33
2022-11-10T02:45:48.941Z,10.33
2022-11-10T02:46:48.908Z,10.30
2022-11-10T02:47:48.891Z,10.30
2022-11-10T02:48:48.881Z,10.30
2022-11-10T02:49:48.872Z,10.28
2022-11-10T02:50:48.871Z,10.28
2022-11-10T02:51:48.849Z,10.25
2022-11-10T02:52:48.843Z,10.25
2022-11-10T02:53:48.832Z,10.22
2022-11-10T02:54:48.812Z,10.21
2022-11-10T02:55:48.804Z,10.21
2022-11-10T02:56:48.781Z,10.18
2022-11-10T02:57:48.773Z,10.14
2022-11-10T02:58:48.762Z,10.12
2022-11-10T02:59:48.742Z,10.09
2022-11-10T03:00:48.732Z,10.06
2022-11-10T03:01:48.712Z,10.04
2022-11-10T03:02:48.712Z,10.06
2022-11-10T03:03:48.692Z,10.03
2022-11-10T03:04:48.673Z,9.96
2022-11-10T03:05:48.676Z,9.91
2022-11-10T03:06:48.678Z,9.85
2022-11-10T03:07:48.634Z,9.81
2022-11-10T03:08:48.624Z,9.71
2022-11-10T03:09:48.635Z,9.68
2022-11-10T03:10:48.614Z,9.61
2022-11-10T03:11:48.584Z,9.56
2022-11-10T03:12:48.574Z,9.53
2022-11-10T03:14:00.966Z,9.48
2022-11-10T03:14:49.545Z,9.42
2022-11-10T03:15:48.628Z,9.40
2022-11-10T03:16:48.542Z,9.39
2022-11-10T03:17:48.512Z,9.38
2022-11-10T03:18:48.505Z,9.38
2022-11-10T03:19:48.486Z,9.34
2022-11-10T03:20:48.485Z,9.30
2022-11-10T03:21:48.453Z,9.27
2022-11-10T03:22:48.490Z,9.24
2022-11-10T03:23:48.444Z,9.20
2022-11-10T03:24:48.429Z,9.16
2022-11-10T03:25:48.406Z,9.15
2022-11-10T03:26:48.423Z,9.06
2022-11-10T03:27:48.392Z,9.02
2022-11-10T03:28:48.381Z,8.96
2022-11-10T03:29:48.357Z,8.94
2022-11-10T03:30:48.374Z,8.90
2022-11-10T03:31:48.325Z,8.87
2022-11-10T03:32:48.317Z,8.86
2022-11-10T03:33:48.340Z,8.83
2022-11-10T03:34:48.297Z,8.79
2022-11-10T03:35:48.288Z,8.76
2022-11-10T03:36:48.266Z,8.73
2022-11-10T03:37:48.255Z,8.72
2022-11-10T03:38:48.238Z,8.69
2022-11-10T03:39:48.225Z,8.68
2022-11-10T03:41:17.521Z,8.66
2022-11-10T03:41:49.198Z,8.65
2022-11-10T03:42:48.189Z,8.66
2022-11-10T03:43:48.181Z,8.68
2022-11-10T03:44:48.169Z,8.66
2022-11-10T03:45:48.156Z,8.66
2022-11-10T03:46:51.580Z,8.66
2022-11-10T03:47:48.120Z,8.66
2022-11-10T03:48:53.202Z,8.68
2022-11-10T03:49:49.112Z,8.66
2022-11-10T04:03:13.594Z,8.93
2022-11-10T04:04:13.656Z,8.91
2022-11-10T04:05:13.595Z,8.88
2022-11-10T04:06:14.322Z,8.91
2022-11-10T04:07:13.644Z,8.91
2022-11-10T04:08:15.545Z,8.91
2022-11-10T04:09:13.583Z,8.93
2022-11-10T04:10:13.507Z,8.91
2022-11-10T04:11:13.480Z,8.90
2022-11-10T04:12:13.506Z,8.91
2022-11-10T04:13:13.465Z,8.91
2022-11-10T04:14:15.499Z,8.91
2022-11-10T04:15:13.463Z,8.90
2022-11-10T04:16:13.425Z,8.88
2022-11-10T04:17:13.455Z,8.86
2022-11-10T04:18:13.435Z,8.79
2022-11-10T04:19:13.386Z,8.75
2022-11-10T04:20:13.369Z,8.72
2022-11-10T04:21:13.364Z,8.69
2022-11-10T04:22:13.366Z,8.63
2022-11-10T04:23:13.375Z,8.58
2022-11-10T04:24:13.316Z,8.54
2022-11-10T04:25:13.316Z,8.51
2022-11-10T04:26:13.287Z,8.47
2022-11-10T04:27:13.277Z,8.40
2022-11-10T04:28:13.264Z,8.37
2022-11-10T04:29:13.386Z,8.33
2022-11-10T04:30:13.236Z,8.29
2022-11-10T04:31:13.229Z,8.26
2022-11-10T04:32:13.197Z,8.22
2022-11-10T04:33:13.236Z,8.20
2022-11-10T04:34:13.184Z,8.15
2022-11-10T04:35:13.177Z,8.15
2022-11-10T04:36:13.166Z,8.11
2022-11-10T04:37:13.138Z,8.10
2022-11-10T04:38:13.125Z,8.04
2022-11-10T04:39:13.224Z,8.02
2022-11-10T04:40:13.187Z,7.97
2022-11-10T04:41:13.212Z,7.96
2022-11-10T04:42:13.109Z,7.93
2022-11-10T04:43:13.078Z,7.92
2022-11-10T04:44:13.138Z,7.89
2022-11-10T04:45:13.049Z,7.87
2022-11-10T04:46:13.011Z,7.84
2022-11-10T04:47:13.058Z,7.84
2022-11-10T04:48:12.999Z,7.82
2022-11-10T04:49:12.998Z,7.82
2022-11-10T04:50:13.058Z,7.84
2022-11-10T04:51:18.278Z,7.85
2022-11-10T04:52:14.009Z,7.89
2022-11-10T04:53:12.939Z,7.93
2022-11-10T04:54:13.942Z,7.99
2022-11-10T04:55:12.921Z,8.04
2022-11-10T04:56:12.921Z,8.08
2022-11-10T04:57:12.889Z,8.10
2022-11-10T04:58:12.871Z,8.12
2022-11-10T04:59:12.879Z,8.11
2022-11-10T05:00:12.851Z,8.11
2022-11-10T05:01:12.941Z,8.11
2022-11-10T05:02:12.809Z,8.11
2022-11-10T05:03:14.830Z,8.10
2022-11-10T05:04:12.822Z,8.04
2022-11-10T05:05:12.781Z,8.02
2022-11-10T05:06:12.793Z,7.96
2022-11-10T05:07:12.772Z,7.93
2022-11-10T05:08:13.731Z,7.94
2022-11-10T05:09:12.762Z,7.93
2022-11-10T05:10:12.736Z,7.90
2022-11-10T05:11:12.698Z,7.87
2022-11-10T05:12:12.789Z,7.85
2022-11-10T05:13:12.673Z,7.81
2022-11-10T05:14:12.668Z,7.79
2022-11-10T05:15:12.663Z,7.77
2022-11-10T05:16:12.631Z,7.74
2022-11-10T05:17:12.611Z,7.71
2022-11-10T05:18:12.602Z,7.69
2022-11-10T05:19:12.615Z,7.67
2022-11-10T05:20:12.583Z,7.63
2022-11-10T05:21:12.565Z,7.63
2022-11-10T05:22:13.531Z,7.66
2022-11-10T05:23:12.544Z,7.62
2022-11-10T05:24:13.543Z,7.59
2022-11-10T05:25:13.526Z,7.55
2022-11-10T05:26:12.493Z,7.49
2022-11-10T05:27:12.505Z,7.42
2022-11-10T05:28:12.473Z,7.41
2022-11-10T05:29:12.474Z,7.38
2022-11-10T05:30:12.483Z,7.37
2022-11-10T05:31:12.442Z,7.34
2022-11-10T05:32:12.434Z,7.31
2022-11-10T05:33:12.415Z,7.29
2022-11-10T05:34:12.396Z,7.26
2022-11-10T05:35:12.397Z,7.26
2022-11-10T05:36:12.363Z,7.24
2022-11-10T05:37:12.405Z,7.22
2022-11-10T05:38:12.336Z,7.17
2022-11-10T05:39:12.341Z,7.13
2022-11-10T05:40:12.335Z,7.12
2022-11-10T05:41:12.323Z,7.07
2022-11-10T05:42:12.296Z,7.05
2022-11-10T05:43:12.305Z,7.02
2022-11-10T05:44:12.287Z,6.98
2022-11-10T05:45:12.278Z,6.97
2022-11-10T05:46:12.235Z,6.98
2022-11-10T05:47:12.236Z,6.97
2022-11-10T05:48:12.216Z,6.94
2022-11-10T05:49:12.218Z,6.94
2022-11-10T05:50:12.207Z,6.94
2022-11-10T05:51:13.175Z,6.94
2022-11-10T05:52:12.156Z,6.91
2022-11-10T05:53:12.184Z,6.90
2022-11-10T05:54:12.186Z,6.98
2022-11-10T05:55:13.145Z,6.98
2022-11-10T05:56:14.156Z,6.94
2022-11-10T05:57:12.106Z,6.90
2022-11-10T05:58:12.092Z,6.89
2022-11-10T05:59:12.066Z,6.84
2022-11-10T06:00:12.088Z,6.84
2022-11-10T06:01:13.036Z,6.81
2022-11-10T06:02:12.043Z,6.77
2022-11-10T06:03:12.065Z,6.73
2022-11-10T06:04:12.009Z,6.71
2022-11-10T06:05:12.026Z,6.71
2022-11-10T06:06:12.975Z,6.71
2022-11-10T06:07:12.052Z,6.69
2022-11-10T06:08:11.969Z,6.71
2022-11-10T06:09:11.935Z,6.68
2022-11-10T06:10:11.946Z,6.68
2022-11-10T06:11:11.905Z,6.68
2022-11-10T06:12:11.908Z,6.63
2022-11-10T06:13:11.902Z,6.66
2022-11-10T06:14:11.878Z,6.72
2022-11-10T06:15:11.891Z,6.72
2022-11-10T06:16:11.839Z,6.71
2022-11-10T06:17:11.835Z,6.76
2022-11-10T06:18:11.819Z,6.80
2022-11-10T06:19:12.820Z,6.79
2022-11-10T06:20:11.806Z,6.76
2022-11-10T06:21:11.786Z,6.72
2022-11-10T06:22:11.781Z,6.68
2022-11-10T06:23:11.756Z,6.68
2022-11-10T06:24:11.736Z,6.69
2022-11-10T06:25:11.741Z,6.72
2022-11-10T06:26:12.735Z,6.76
2022-11-10T06:27:12.700Z,6.76
2022-11-10T06:28:11.685Z,6.73
2022-11-10T06:29:11.691Z,6.80
2022-11-10T06:30:11.681Z,6.79
2022-11-10T06:31:11.655Z,6.76
2022-11-10T06:32:11.628Z,6.77
2022-11-10T06:33:11.684Z,6.73
2022-11-10T06:34:11.608Z,6.72
2022-11-10T06:35:11.618Z,6.83
2022-11-10T06:36:12.585Z,6.89
2022-11-10T06:37:11.584Z,6.84
2022-11-10T06:38:11.549Z,6.86
2022-11-10T06:39:11.548Z,6.90
2022-11-10T06:40:11.552Z,6.86
2022-11-10T06:41:11.512Z,6.87
2022-11-10T06:42:11.509Z,6.94
2022-11-10T06:43:11.501Z,6.99
2022-11-10T06:44:11.481Z,6.98
2022-11-10T06:45:11.470Z,6.99
2022-11-10T06:46:11.453Z,6.98
2022-11-10T06:47:12.450Z,6.99
2022-11-10T06:48:11.433Z,7.04
2022-11-10T06:49:13.438Z,7.07
2022-11-10T06:50:11.421Z,7.09
2022-11-10T06:51:11.370Z,7.15
2022-11-10T06:52:12.368Z,7.17
2022-11-10T06:53:11.351Z,7.20
2022-11-10T06:54:11.352Z,7.17
2022-11-10T06:55:11.340Z,7.09
2022-11-10T06:56:11.392Z,7.04
2022-11-10T06:57:11.302Z,7.01
2022-11-10T06:58:11.292Z,7.01
2022-11-10T06:59:11.282Z,6.99
2022-11-10T07:00:11.315Z,6.98
2022-11-10T07:01:11.262Z,6.95
2022-11-10T07:02:13.916Z,6.94
2022-11-10T07:03:11.212Z,6.91
2022-11-10T07:04:19.816Z,6.89
2022-11-10T07:05:12.226Z,6.87
2022-11-10T07:06:32.206Z,6.83
2022-11-10T07:07:11.218Z,6.81
2022-11-10T07:08:11.191Z,6.79
2022-11-10T07:09:11.168Z,6.77
2022-11-10T07:10:11.120Z,6.79
2022-11-10T07:11:11.114Z,6.79
2022-11-10T07:12:11.093Z,6.77
2022-11-10T07:13:11.094Z,6.79
2022-11-10T07:14:11.134Z,6.77
2022-11-10T07:15:11.104Z,6.76
2022-11-10T07:16:11.075Z,6.76
2022-11-10T07:17:11.044Z,6.76
2022-11-10T07:18:11.048Z,6.76
2022-11-10T07:19:12.044Z,6.73
2022-11-10T07:20:11.018Z,6.73
2022-11-10T07:21:10.994Z,6.77
2022-11-10T07:22:11.539Z,6.77
2022-11-10T07:23:11.968Z,6.79
2022-11-10T07:24:10.981Z,6.80
2022-11-10T07:25:10.964Z,6.81
2022-11-10T07:26:10.905Z,6.84
2022-11-10T07:27:10.906Z,6.86
2022-11-10T07:28:10.894Z,6.87
2022-11-10T07:29:10.873Z,6.90
2022-11-10T07:30:10.874Z,6.91
2022-11-10T07:31:10.878Z,6.97
2022-11-10T07:32:10.835Z,6.98
2022-11-10T07:33:10.837Z,7.05
2022-11-10T07:34:10.806Z,7.12
2022-11-10T07:35:10.835Z,7.16
2022-11-10T07:36:11.830Z,7.22
2022-11-10T07:37:10.776Z,7.26
2022-11-10T07:38:10.771Z,7.35
2022-11-10T07:39:10.782Z,7.42
2022-11-10T07:40:10.737Z,7.45
2022-11-10T07:41:10.739Z,7.50
2022-11-10T07:42:11.696Z,7.58
2022-11-10T07:43:10.694Z,7.60
2022-11-10T07:44:10.707Z,7.58
2022-11-10T07:45:10.690Z,7.60
2022-11-10T07:46:10.639Z,7.66
2022-11-10T07:47:10.628Z,7.67
2022-11-10T07:48:10.615Z,7.71
2022-11-10T07:49:11.624Z,7.74
2022-11-10T07:50:12.607Z,7.75
2022-11-10T07:51:10.615Z,7.79
2022-11-10T07:52:10.547Z,7.84
2022-11-10T07:53:12.599Z,7.90
2022-11-10T07:54:11.537Z,7.99
2022-11-10T07:55:10.536Z,8.10
2022-11-10T07:56:10.491Z,8.26
2022-11-10T07:57:10.538Z,8.35
2022-11-10T07:58:10.473Z,8.47
2022-11-10T07:59:10.496Z,8.55
2022-11-10T08:00:10.471Z,8.63
2022-11-10T08:01:10.469Z,8.66
2022-11-10T08:02:12.456Z,8.71
2022-11-10T08:03:10.429Z,8.78
2022-11-10T08:04:10.418Z,8.84
2022-11-10T08:05:10.399Z,8.90
2022-11-10T08:06:10.418Z,8.97
2022-11-10T08:07:10.470Z,9.01
2022-11-10T08:08:10.361Z,9.02
2022-11-10T08:09:10.350Z,9.04
2022-11-10T08:10:10.331Z,9.09
2022-11-10T08:11:10.324Z,9.18
2022-11-10T08:12:10.284Z,9.24
2022-11-10T08:13:10.297Z,9.25
2022-11-10T08:14:10.310Z,9.32
2022-11-10T08:15:10.280Z,9.42
2022-11-10T08:16:10.251Z,9.50
2022-11-10T08:17:10.234Z,9.57
2022-11-10T08:18:10.230Z,9.64
2022-11-10T08:19:10.221Z,9.76
2022-11-10T08:20:11.209Z,9.85
2022-11-10T08:21:10.215Z,9.88
2022-11-10T08:22:10.171Z,9.88
2022-11-10T08:23:10.173Z,9.91
2022-11-10T08:24:10.143Z,9.89
2022-11-10T08:25:10.152Z,9.88
2022-11-10T08:26:10.141Z,9.97
2022-11-10T08:27:10.111Z,10.06
2022-11-10T08:28:10.096Z,10.18
2022-11-10T08:29:11.073Z,10.18
2022-11-10T08:30:10.078Z,10.28
2022-11-10T08:31:10.062Z,10.46
2022-11-10T08:32:10.031Z,10.63
2022-11-10T08:33:10.045Z,10.78
2022-11-10T08:34:11.022Z,10.88
2022-11-10T08:35:10.031Z,10.99
2022-11-10T08:36:10.011Z,11.13
2022-11-10T08:37:09.974Z,11.19
2022-11-10T08:38:10.131Z,11.29
2022-11-10T08:39:09.954Z,11.43
2022-11-10T08:40:09.969Z,11.47
2022-11-10T08:41:09.923Z,11.59
2022-11-10T08:42:09.913Z,11.67
2022-11-10T08:43:09.893Z,11.52
2022-11-10T08:44:11.221Z,11.43
2022-11-10T08:45:09.900Z,11.39
2022-11-10T08:46:09.856Z,11.34
2022-11-10T08:47:09.843Z,11.17
2022-11-10T08:48:09.835Z,11.11
2022-11-10T08:49:09.830Z,11.03
2022-11-10T08:50:10.813Z,10.96
2022-11-10T08:51:09.794Z,10.94
2022-11-10T08:52:09.773Z,10.86
2022-11-10T08:53:09.783Z,10.84
2022-11-10T08:54:09.760Z,10.83
2022-11-10T08:55:09.744Z,10.86
2022-11-10T08:56:09.741Z,10.89
2022-11-10T08:57:11.745Z,10.96
2022-11-10T08:58:09.705Z,10.99
2022-11-10T08:59:09.688Z,11.03
2022-11-10T09:00:09.693Z,11.09
2022-11-10T09:01:09.658Z,11.13
2022-11-10T09:02:09.667Z,11.11
2022-11-10T09:03:09.647Z,11.11
2022-11-10T09:04:09.704Z,11.13
2022-11-10T09:05:09.615Z,11.06
2022-11-10T09:06:10.609Z,11.03
2022-11-10T09:07:09.620Z,11.03
2022-11-10T09:08:09.559Z,11.02
2022-11-10T09:09:09.552Z,11.06
2022-11-10T09:10:09.548Z,11.09
2022-11-10T09:11:09.524Z,11.09
2022-11-10T09:12:09.518Z,11.13
2022-11-10T09:13:09.578Z,11.11
2022-11-10T09:14:09.508Z,11.14
2022-11-10T09:15:09.548Z,11.19
2022-11-10T09:16:09.503Z,11.27
2022-11-10T09:17:09.472Z,11.32
2022-11-10T09:18:09.464Z,11.50
2022-11-10T09:19:09.429Z,11.65
2022-11-10T09:20:10.491Z,11.78
2022-11-10T09:21:17.919Z,11.87
2022-11-10T09:22:09.385Z,11.87
2022-11-10T09:23:09.380Z,12.02
2022-11-10T09:24:09.351Z,12.05
2022-11-10T09:25:10.344Z,12.05
2022-11-10T09:26:09.378Z,12.02
2022-11-10T09:27:09.324Z,12.04
2022-11-10T09:28:09.304Z,12.08
2022-11-10T09:29:09.295Z,11.96
2022-11-10T09:30:14.587Z,12.13
2022-11-10T09:31:10.280Z,12.20
2022-11-10T09:32:09.266Z,12.46
2022-11-10T09:33:09.224Z,13.07
2022-11-10T09:34:09.216Z,13.40
2022-11-10T09:35:09.195Z,13.55
2022-11-10T09:36:09.205Z,13.36
2022-11-10T09:37:09.185Z,13.43
2022-11-10T09:38:09.159Z,13.62
2022-11-10T09:39:09.154Z,14.01
2022-11-10T09:40:12.739Z,13.76
2022-11-10T09:41:09.137Z,13.89
2022-11-10T09:42:09.116Z,14.19
2022-11-10T09:43:09.105Z,13.96
2022-11-10T09:44:09.091Z,14.13
2022-11-10T09:45:11.098Z,14.74
2022-11-10T09:46:09.068Z,14.44
2022-11-10T09:47:12.080Z,14.17
2022-11-10T10:03:50.600Z,13.98
2022-11-10T10:04:52.095Z,13.73
2022-11-10T10:05:50.581Z,13.96
2022-11-10T10:07:10.295Z,13.76
2022-11-10T10:07:51.651Z,13.81
2022-11-10T10:08:50.511Z,14.21
2022-11-10T10:09:50.522Z,14.75
2022-11-10T10:10:50.514Z,14.44
2022-11-10T10:11:50.490Z,13.98
2022-11-10T10:12:50.482Z,13.69
2022-11-10T10:13:50.474Z,13.38
2022-11-10T10:14:50.448Z,13.40
2022-11-10T10:15:50.451Z,13.24
2022-11-10T10:16:50.421Z,13.18
2022-11-10T10:17:50.411Z,13.11
2022-11-10T10:18:50.403Z,12.96
2022-11-10T10:19:50.399Z,12.81
2022-11-10T10:20:50.374Z,12.69
2022-11-10T10:21:51.361Z,12.66
2022-11-10T10:22:50.344Z,12.64
2022-11-10T10:24:51.324Z,12.69
2022-11-10T10:25:51.326Z,12.60
2022-11-10T10:26:50.312Z,12.63
2022-11-10T10:27:50.283Z,12.64
2022-11-10T10:28:50.282Z,12.63
2022-11-10T10:29:50.274Z,12.67
2022-11-10T10:30:52.253Z,12.82
2022-11-10T10:31:50.232Z,12.92
2022-11-10T10:32:50.224Z,12.81
2022-11-10T10:33:50.205Z,12.67
2022-11-10T10:34:50.204Z,12.66
2022-11-10T10:35:50.190Z,12.70
2022-11-10T10:36:50.175Z,12.77
2022-11-10T10:37:51.166Z,12.88
2022-11-10T10:38:50.143Z,12.84
2022-11-10T10:39:50.146Z,12.85
2022-11-10T10:40:50.123Z,12.88
2022-11-10T10:41:50.107Z,12.92
2022-11-10T10:42:51.095Z,12.87
2022-11-10T10:43:50.076Z,12.92
2022-11-10T10:44:50.086Z,12.96
2022-11-10T10:45:50.118Z,12.92
2022-11-10T10:46:50.046Z,12.87
2022-11-10T10:47:50.026Z,12.79
2022-11-10T10:48:53.823Z,12.74
2022-11-10T10:49:51.016Z,12.71
2022-11-10T10:50:49.998Z,12.57
2022-11-10T10:51:49.977Z,12.54
2022-11-10T10:52:49.957Z,12.44
2022-11-10T10:53:49.957Z,12.41
2022-11-10T10:54:49.947Z,12.56
2022-11-10T10:55:49.948Z,13.65
2022-11-10T10:56:49.908Z,14.20
2022-11-10T10:57:49.889Z,14.67
2022-11-10T10:58:49.896Z,15.49
2022-11-10T10:59:49.867Z,15.60
2022-11-10T11:00:50.874Z,15.46
2022-11-10T11:01:50.911Z,15.33
2022-11-10T11:02:49.838Z,15.02
2022-11-10T11:03:49.830Z,14.98
2022-11-10T11:04:49.811Z,14.78
2022-11-10T11:05:49.811Z,15.89
2022-11-10T11:06:50.863Z,16.20
2022-11-10T11:07:49.771Z,15.82
2022-11-10T11:08:50.757Z,15.39
2022-11-10T11:09:49.760Z,15.08
2022-11-10T11:10:50.736Z,14.95
2022-11-10T11:11:50.711Z,16.16
2022-11-10T11:12:49.719Z,16.92
2022-11-10T11:13:49.691Z,17.74
2022-11-10T11:14:49.709Z,17.47
2022-11-10T11:15:49.679Z,16.95
2022-11-10T11:16:50.653Z,17.36
2022-11-10T11:17:49.701Z,18.12
2022-11-10T11:18:49.621Z,18.19
2022-11-10T11:19:49.609Z,18.33
2022-11-10T11:20:49.612Z,17.50
2022-11-10T11:21:49.583Z,16.77
2022-11-10T11:22:49.574Z,16.27
2022-11-10T11:23:49.572Z,15.97
2022-11-10T11:24:50.554Z,15.78
2022-11-10T11:25:49.554Z,15.54
2022-11-10T11:26:49.534Z,15.27
2022-11-10T11:27:49.513Z,15.12
2022-11-10T11:28:49.507Z,14.84
2022-11-10T11:29:49.488Z,14.65
2022-11-10T11:30:49.496Z,14.35
2022-11-10T11:31:49.478Z,14.04
2022-11-10T11:32:49.458Z,13.88
2022-11-10T11:33:49.424Z,13.62
2022-11-10T11:34:50.423Z,13.44
2022-11-10T11:35:49.426Z,13.77
2022-11-10T11:36:49.405Z,14.20
2022-11-10T11:37:50.382Z,14.56
2022-11-10T11:38:49.404Z,16.33
2022-11-10T11:39:50.368Z,18.02
2022-11-10T11:40:49.388Z,19.43
2022-11-10T11:41:49.344Z,20.87
2022-11-10T11:42:50.317Z,21.71
2022-11-10T11:43:49.303Z,22.54
2022-11-10T11:44:50.308Z,23.09
2022-11-10T11:45:49.311Z,23.42
2022-11-10T11:46:49.668Z,23.76
2022-11-10T11:47:49.260Z,24.44
2022-11-10T11:48:49.236Z,24.77
2022-11-10T11:49:49.246Z,25.01
2022-11-10T11:50:49.231Z,24.45
2022-11-10T11:51:49.208Z,24.12
2022-11-10T11:52:49.190Z,23.79
2022-11-10T11:53:49.170Z,23.11
2022-11-10T11:54:49.181Z,23.55
2022-11-10T11:55:49.161Z,23.12
2022-11-10T11:56:49.140Z,23.31
2022-11-10T11:57:49.127Z,24.00
2022-11-10T11:58:49.134Z,24.75
2022-11-10T11:59:49.189Z,24.92
2022-11-10T12:00:49.111Z,24.73
2022-11-10T12:01:49.063Z,24.67
2022-11-10T12:02:52.986Z,24.87
2022-11-10T12:03:49.053Z,23.19
2022-11-10T12:04:49.044Z,22.43
2022-11-10T12:05:49.032Z,22.74
2022-11-10T12:06:49.062Z,22.74
2022-11-10T12:07:49.035Z,23.24
2022-11-10T12:08:48.993Z,23.89
2022-11-10T12:09:48.964Z,24.80
2022-11-10T12:10:48.989Z,25.49
2022-11-10T12:11:49.957Z,25.05
2022-11-10T12:12:48.962Z,23.95
2022-11-10T12:13:48.915Z,24.07
2022-11-10T12:14:48.904Z,23.97
2022-11-10T12:15:48.914Z,24.61
2022-11-10T12:16:48.913Z,25.34
2022-11-10T12:17:48.866Z,24.61
2022-11-10T12:18:49.789Z,24.53
2022-11-10T12:19:48.866Z,24.35
2022-11-10T12:20:48.847Z,21.76
2022-11-10T12:21:49.817Z,20.30
2022-11-10T12:22:48.825Z,20.42
2022-11-10T12:23:48.787Z,20.53
2022-11-10T12:24:48.778Z,20.64
2022-11-10T12:25:48.791Z,20.66
2022-11-10T12:26:49.750Z,19.90
2022-11-10T12:27:48.739Z,18.68
2022-11-10T12:28:48.745Z,18.06
2022-11-10T12:29:48.725Z,17.70
2022-11-10T12:30:48.714Z,17.22
2022-11-10T12:31:48.721Z,17.43
2022-11-10T12:32:48.690Z,16.73
2022-11-10T12:33:48.672Z,16.98
2022-11-10T12:34:48.652Z,17.67
2022-11-10T12:35:48.662Z,17.15
2022-11-10T12:36:49.622Z,18.00
2022-11-10T12:37:48.612Z,18.02
2022-11-10T12:38:48.657Z,18.12
2022-11-10T12:39:48.622Z,19.14
2022-11-10T12:40:48.600Z,19.65
2022-11-10T12:41:48.553Z,20.43
2022-11-10T12:42:49.554Z,21.32
2022-11-10T12:43:48.557Z,21.02
2022-11-10T12:44:49.528Z,21.92
2022-11-10T12:45:48.505Z,22.13
2022-11-10T12:46:52.022Z,22.04
2022-11-10T12:47:49.485Z,22.12
2022-11-10T12:48:48.469Z,21.63
2022-11-10T12:49:49.447Z,21.81
2022-11-10T12:50:49.467Z,22.17
2022-11-10T12:51:48.445Z,21.46
2022-11-10T12:52:48.426Z,20.79
2022-11-10T12:53:48.416Z,20.47
2022-11-10T12:54:48.401Z,19.53
2022-11-10T12:55:48.377Z,18.99
2022-11-10T12:56:48.381Z,18.83
2022-11-10T12:57:48.362Z,18.84
2022-11-10T12:58:48.347Z,19.06
2022-11-10T12:59:48.351Z,18.98
2022-11-10T13:00:48.342Z,18.97
2022-11-10T13:01:49.340Z,18.59
2022-11-10T13:02:48.307Z,18.40
2022-11-10T13:03:48.291Z,18.34
2022-11-10T13:04:48.270Z,18.25
2022-11-10T13:05:48.272Z,18.17
2022-11-10T13:06:48.313Z,17.88
2022-11-10T13:07:48.226Z,17.70
2022-11-10T13:08:48.233Z,17.10
2022-11-10T13:09:48.241Z,16.93
2022-11-10T13:10:48.213Z,16.93
2022-11-10T13:11:48.183Z,16.75
2022-11-10T13:12:48.197Z,16.65
2022-11-10T13:13:52.116Z,16.60
2022-11-10T13:14:48.154Z,16.42
2022-11-10T13:15:48.209Z,16.38
2022-11-10T13:16:48.117Z,16.22
2022-11-10T13:17:48.114Z,16.25
2022-11-10T13:18:48.097Z,16.00
2022-11-10T13:19:48.090Z,15.92
2022-11-10T13:20:49.066Z,15.75
2022-11-10T13:21:48.046Z,15.49
2022-11-10T13:22:48.055Z,15.52
2022-11-10T13:23:48.025Z,15.56
2022-11-10T13:24:48.042Z,15.66
2022-11-10T13:25:47.997Z,15.74
2022-11-10T13:26:47.999Z,15.85
2022-11-10T13:27:47.990Z,15.93
2022-11-10T13:28:47.979Z,16.03
2022-11-10T13:29:49.987Z,16.06
2022-11-10T13:30:47.962Z,16.03
2022-11-10T13:31:47.919Z,15.94